Time;durP1;ratioP1;P1;durP2;ratioP2;P2;SDS_P1;SDS_P2;PMS_P1;PMS_P2;Temp;Humidity;BMP_temperature;BMP_pressure;BME280_temperature;BME280_humidity;BME280_pressure;Samples;Min_cycle;Max_cycle;Signal;HPM_P1;HPM_P2
2023/05/17 00:00:12;;;;;;;87.93;53.83;;;;;;;;;;4990471;28;20038;-65
2023/05/17 00:02:39;;;;;;;84.13;50.30;;;;;;;;;;4997118;28;20130;-64
2023/05/17 00:05:06;;;;;;;86.70;45.45;;;;;;;;;;5019058;28;20052;-65
2023/05/17 00:07:32;;;;;;;85.57;50.83;;;;;;;;;;5016511;28;20052;-64
2023/05/17 00:09:59;;;;;;;80.28;47.08;;;;;;;;;;5001190;28;20037;-64
2023/05/17 00:12:26;;;;;;;74.18;40.85;;;;;;;;;;4996416;28;20049;-66
2023/05/17 00:14:52;;;;;;;85.50;47.22;;;;;;;;;;4990560;28;20044;-67
2023/05/17 00:17:19;;;;;;;76.95;45.75;;;;;;;;;;5025848;28;20037;-65
2023/05/17 00:19:45;;;;;;;80.97;45.60;;;;;;;;;;5016491;28;20041;-67
2023/05/17 00:22:12;;;;;;;71.45;45.97;;;;;;;;;;5019118;28;20088;-66
2023/05/17 00:24:39;;;;;;;87.60;45.08;;;;;;;;;;5014012;28;20049;-67
2023/05/17 00:27:06;;;;;;;75.45;43.95;;;;;;;;;;5019079;28;20767;-64
2023/05/17 00:29:32;;;;;;;74.60;45.95;;;;;;;;;;5032194;28;20037;-65
2023/05/17 00:31:59;;;;;;;66.57;40.53;;;;;;;;;;5018336;28;20042;-65
2023/05/17 00:34:25;;;;;;;76.03;43.58;;;;;;;;;;5015687;28;20486;-66
2023/05/17 00:36:52;;;;;;;80.32;45.80;;;;;;;;;;5023481;28;20061;-64
2023/05/17 00:39:38;;;;;;;72.07;43.90;;;;;;;;;;5008190;28;20181;-68
2023/05/17 00:42:05;;;;;;;78.40;43.08;;;;;;;;;;5010028;28;20045;-64
2023/05/17 00:44:32;;;;;;;64.03;37.35;;;;;;;;;;5008530;28;20240;-65
2023/05/17 00:46:59;;;;;;;70.75;42.22;;;;;;;;;;4992863;28;20037;-67
2023/05/17 00:49:26;;;;;;;68.68;39.00;;;;;;;;;;5008835;28;20042;-66
2023/05/17 00:51:53;;;;;;;71.47;39.13;;;;;;;;;;5009308;28;20042;-65
2023/05/17 00:54:22;;;;;;;63.22;38.22;;;;;;;;;;5009712;28;20141;-65
2023/05/17 00:56:49;;;;;;;69.75;38.13;;;;;;;;;;5011385;28;20033;-65
2023/05/17 00:59:17;;;;;;;68.00;38.90;;;;;;;;;;5009783;28;20651;-66
2023/05/17 01:01:44;;;;;;;65.55;38.40;;;;;;;;;;5010362;28;20321;-64
2023/05/17 01:04:11;;;;;;;62.38;34.97;;;;;;;;;;5009716;28;20061;-65
2023/05/17 01:06:37;;;;;;;66.85;36.05;;;;;;;;;;4996062;28;20092;-66
2023/05/17 01:09:05;;;;;;;59.22;33.65;;;;;;;;;;5009819;28;20091;-65
2023/05/17 01:11:55;;;;;;;52.72;31.30;;;;;;;;;;5014823;28;20049;-66
2023/05/17 01:14:35;;;;;;;60.67;33.65;;;;;;;;;;5007837;28;20049;-65
2023/05/17 01:17:04;;;;;;;52.00;31.27;;;;;;;;;;5016243;28;20205;-65
2023/05/17 01:19:46;;;;;;;58.45;33.47;;;;;;;;;;5014576;28;20087;-65
2023/05/17 01:22:13;;;;;;;51.72;31.98;;;;;;;;;;5016827;28;20053;-65
2023/05/17 01:24:45;;;;;;;58.65;32.78;;;;;;;;;;5015910;28;20084;-65
2023/05/17 01:27:13;;;;;;;56.77;32.23;;;;;;;;;;5015521;28;20084;-66
2023/05/17 01:29:40;;;;;;;53.83;33.28;;;;;;;;;;5013906;28;20351;-64
2023/05/17 01:32:07;;;;;;;56.47;32.45;;;;;;;;;;5016093;28;20549;-65
2023/05/17 01:34:35;;;;;;;58.88;33.53;;;;;;;;;;5015695;28;20052;-65
2023/05/17 01:37:01;;;;;;;57.30;32.30;;;;;;;;;;5015853;28;20037;-65
2023/05/17 01:39:28;;;;;;;54.67;31.70;;;;;;;;;;5014737;28;20065;-65
2023/05/17 01:42:02;;;;;;;60.83;33.33;;;;;;;;;;5016564;28;20168;-66
2023/05/17 01:44:40;;;;;;;54.45;32.28;;;;;;;;;;5015172;28;20132;-65
2023/05/17 01:47:13;;;;;;;58.03;31.98;;;;;;;;;;5016216;28;20045;-66
2023/05/17 01:49:41;;;;;;;55.40;32.97;;;;;;;;;;5015053;28;20041;-65
2023/05/17 01:52:08;;;;;;;54.83;32.58;;;;;;;;;;5015376;28;20037;-67
2023/05/17 01:54:56;;;;;;;53.10;31.70;;;;;;;;;;5015213;28;20046;-66
2023/05/17 01:57:28;;;;;;;55.70;32.75;;;;;;;;;;5015525;28;20509;-66
2023/05/17 01:59:55;;;;;;;56.50;33.07;;;;;;;;;;5016031;28;20911;-66
2023/05/17 02:02:22;;;;;;;55.10;32.60;;;;;;;;;;5015859;28;20042;-67
2023/05/17 02:04:50;;;;;;;52.05;30.45;;;;;;;;;;5016109;28;20808;-66
2023/05/17 02:07:16;;;;;;;54.83;31.80;;;;;;;;;;5015692;28;20771;-66
2023/05/17 02:09:43;;;;;;;52.13;30.92;;;;;;;;;;5014860;28;20087;-65
2023/05/17 02:12:10;;;;;;;54.85;31.95;;;;;;;;;;5015872;28;20468;-65
2023/05/17 02:14:36;;;;;;;53.35;30.33;;;;;;;;;;5030860;28;20043;-64
2023/05/17 02:17:04;;;;;;;54.67;32.33;;;;;;;;;;5015846;28;20398;-65
2023/05/17 02:19:31;;;;;;;58.75;33.30;;;;;;;;;;5013420;28;20032;-65
2023/05/17 02:21:58;;;;;;;52.65;31.65;;;;;;;;;;5015473;28;20041;-65
2023/05/17 02:24:25;;;;;;;56.65;32.28;;;;;;;;;;5014023;28;20579;-64
2023/05/17 02:26:52;;;;;;;50.33;30.98;;;;;;;;;;5015506;28;20038;-65
2023/05/17 02:29:18;;;;;;;57.33;30.48;;;;;;;;;;5015109;28;20133;-64
2023/05/17 02:31:45;;;;;;;54.58;31.50;;;;;;;;;;5014676;28;20524;-64
2023/05/17 02:34:12;;;;;;;59.30;32.40;;;;;;;;;;5015361;28;20050;-64
2023/05/17 02:36:39;;;;;;;56.08;32.08;;;;;;;;;;5014664;28;20888;-65
2023/05/17 02:39:06;;;;;;;57.00;31.23;;;;;;;;;;5014515;28;20103;-65
2023/05/17 02:41:33;;;;;;;53.50;31.40;;;;;;;;;;5014198;28;20167;-65
2023/05/17 02:43:59;;;;;;;56.45;31.30;;;;;;;;;;5015655;28;20502;-65
2023/05/17 02:46:26;;;;;;;56.78;31.48;;;;;;;;;;5014849;28;20444;-66
2023/05/17 02:48:53;;;;;;;58.20;30.80;;;;;;;;;;5014897;28;20034;-67
2023/05/17 02:51:19;;;;;;;59.88;31.95;;;;;;;;;;5014127;28;20137;-65
2023/05/17 02:53:46;;;;;;;63.20;33.45;;;;;;;;;;5014950;28;20083;-64
2023/05/17 02:56:12;;;;;;;61.70;32.83;;;;;;;;;;5015882;28;20087;-62
2023/05/17 02:58:39;;;;;;;58.20;32.72;;;;;;;;;;5015720;28;20124;-63
2023/05/17 03:01:06;;;;;;;61.72;32.25;;;;;;;;;;5015257;28;20417;-67
2023/05/17 03:03:33;;;;;;;66.75;33.33;;;;;;;;;;5014728;28;20148;-64
2023/05/17 03:06:03;;;;;;;61.28;33.65;;;;;;;;;;5015854;28;20507;-65
2023/05/17 03:08:30;;;;;;;60.75;32.33;;;;;;;;;;5015804;28;20394;-65
2023/05/17 03:10:57;;;;;;;63.20;33.75;;;;;;;;;;5014695;28;20037;-65
2023/05/17 03:13:23;;;;;;;57.00;32.63;;;;;;;;;;5014299;28;20041;-65
2023/05/17 03:15:50;;;;;;;61.78;34.03;;;;;;;;;;5014247;28;20063;-60
2023/05/17 03:18:18;;;;;;;55.42;33.03;;;;;;;;;;5013452;28;20854;-60
2023/05/17 03:20:45;;;;;;;72.88;35.45;;;;;;;;;;5011932;28;20038;-63
2023/05/17 03:23:12;;;;;;;58.05;33.28;;;;;;;;;;5015380;28;20099;-60
2023/05/17 03:25:39;;;;;;;60.40;33.50;;;;;;;;;;5013469;28;20672;-62
2023/05/17 03:28:05;;;;;;;60.20;33.33;;;;;;;;;;5015460;28;21630;-65
2023/05/17 03:30:32;;;;;;;64.70;34.35;;;;;;;;;;5013461;28;20080;-64
2023/05/17 03:32:59;;;;;;;67.85;34.42;;;;;;;;;;5017925;28;20049;-66
2023/05/17 03:35:25;;;;;;;74.25;34.80;;;;;;;;;;5017636;28;20041;-63
2023/05/17 03:37:52;;;;;;;70.82;34.47;;;;;;;;;;5008661;28;20033;-64
2023/05/17 03:40:18;;;;;;;74.15;35.67;;;;;;;;;;5018778;28;20046;-64
2023/05/17 03:42:45;;;;;;;67.07;36.08;;;;;;;;;;5018782;28;20037;-65
2023/05/17 03:45:11;;;;;;;61.58;34.15;;;;;;;;;;5018885;28;20051;-64
2023/05/17 03:47:38;;;;;;;58.53;34.10;;;;;;;;;;5033368;28;20482;-64
2023/05/17 03:50:05;;;;;;;62.53;35.15;;;;;;;;;;5033882;28;20048;-63
2023/05/17 03:52:35;;;;;;;65.50;35.35;;;;;;;;;;5018881;28;20061;-65
2023/05/17 03:55:02;;;;;;;66.18;34.65;;;;;;;;;;5018922;28;20042;-65
2023/05/17 03:57:30;;;;;;;65.28;34.20;;;;;;;;;;5016202;28;20074;-65
2023/05/17 03:59:57;;;;;;;75.07;36.08;;;;;;;;;;5018158;28;20056;-63
2023/05/17 04:02:26;;;;;;;66.28;34.95;;;;;;;;;;5013611;28;20044;-63
2023/05/17 04:04:52;;;;;;;72.30;35.00;;;;;;;;;;5019075;28;20049;-63
2023/05/17 04:07:19;;;;;;;65.82;34.22;;;;;;;;;;5034844;28;20048;-63
2023/05/17 04:09:46;;;;;;;65.75;35.17;;;;;;;;;;5019346;28;20037;-63
2023/05/17 04:12:12;;;;;;;63.15;34.85;;;;;;;;;;5018840;28;20398;-64
2023/05/17 04:14:40;;;;;;;70.60;34.92;;;;;;;;;;5017817;28;20038;-62
2023/05/17 04:17:06;;;;;;;67.13;35.63;;;;;;;;;;5017543;28;20099;-63
2023/05/17 04:19:33;;;;;;;79.35;36.42;;;;;;;;;;5016805;28;20483;-62
2023/05/17 04:22:00;;;;;;;76.85;36.15;;;;;;;;;;5018088;28;20165;-62
2023/05/17 04:24:26;;;;;;;69.05;36.78;;;;;;;;;;5016035;28;20056;-65
2023/05/17 04:26:53;;;;;;;68.88;35.95;;;;;;;;;;5019737;28;20041;-64
2023/05/17 04:29:20;;;;;;;71.47;38.15;;;;;;;;;;5018898;28;20037;-64
2023/05/17 04:32:07;;;;;;;70.07;36.30;;;;;;;;;;5034531;28;20041;-64
2023/05/17 04:34:34;;;;;;;73.35;36.80;;;;;;;;;;5032849;28;20068;-64
2023/05/17 04:37:01;;;;;;;63.67;35.45;;;;;;;;;;5034425;28;20449;-63
2023/05/17 04:39:27;;;;;;;68.93;37.30;;;;;;;;;;5032274;28;20044;-63
2023/05/17 04:41:54;;;;;;;62.45;35.95;;;;;;;;;;5033125;28;20041;-63
2023/05/17 04:44:20;;;;;;;70.47;37.75;;;;;;;;;;5032990;28;20053;-66
2023/05/17 04:46:47;;;;;;;70.22;36.10;;;;;;;;;;5034086;28;20037;-63
2023/05/17 04:49:13;;;;;;;72.22;36.00;;;;;;;;;;5033280;28;20151;-64
2023/05/17 04:51:40;;;;;;;70.22;36.15;;;;;;;;;;5033133;28;22254;-62
2023/05/17 04:54:07;;;;;;;63.80;35.40;;;;;;;;;;5033692;28;20899;-63
2023/05/17 04:56:35;;;;;;;64.57;35.65;;;;;;;;;;5033282;28;20041;-62
2023/05/17 04:59:02;;;;;;;71.60;37.13;;;;;;;;;;5032998;28;20044;-63
2023/05/17 05:01:48;;;;;;;65.55;35.63;;;;;;;;;;4970184;28;20046;-63
2023/05/17 05:04:15;;;;;;;62.45;35.42;;;;;;;;;;4975762;28;20050;-63
2023/05/17 05:06:41;;;;;;;72.40;35.58;;;;;;;;;;4975971;28;20042;-63
2023/05/17 05:09:08;;;;;;;75.45;35.78;;;;;;;;;;4975947;28;20084;-64
2023/05/17 05:11:35;;;;;;;71.93;37.72;;;;;;;;;;4977236;28;20034;-63
2023/05/17 05:14:01;;;;;;;68.40;37.28;;;;;;;;;;4976912;28;20053;-63
2023/05/17 05:16:28;;;;;;;79.15;39.40;;;;;;;;;;4964438;28;20090;-63
2023/05/17 05:18:54;;;;;;;69.47;37.53;;;;;;;;;;4976466;28;20038;-63
2023/05/17 05:21:21;;;;;;;70.25;37.97;;;;;;;;;;4976297;28;20042;-63
2023/05/17 05:23:47;;;;;;;87.45;41.60;;;;;;;;;;4959593;28;20149;-63
2023/05/17 05:26:14;;;;;;;84.03;38.33;;;;;;;;;;4975872;28;21303;-63
2023/05/17 05:28:41;;;;;;;68.60;38.35;;;;;;;;;;4974384;28;20977;-65
2023/05/17 05:31:07;;;;;;;67.85;38.25;;;;;;;;;;4976625;28;20050;-63
2023/05/17 05:33:34;;;;;;;72.65;36.85;;;;;;;;;;4976142;28;20054;-63
2023/05/17 05:36:00;;;;;;;72.85;36.20;;;;;;;;;;4977614;28;20037;-63
2023/05/17 05:38:27;;;;;;;71.50;36.53;;;;;;;;;;4982946;28;20046;-63
2023/05/17 05:40:53;;;;;;;66.38;37.20;;;;;;;;;;5016584;28;20107;-62
2023/05/17 05:43:20;;;;;;;66.40;36.70;;;;;;;;;;5018729;28;20659;-64
2023/05/17 05:45:46;;;;;;;69.88;37.67;;;;;;;;;;5016585;28;20049;-63
2023/05/17 05:48:13;;;;;;;77.13;38.22;;;;;;;;;;5016682;28;21097;-63
2023/05/17 05:50:44;;;;;;;70.03;37.35;;;;;;;;;;5015189;28;20060;-62
2023/05/17 05:53:11;;;;;;;73.35;36.90;;;;;;;;;;5017082;28;20046;-62
2023/05/17 05:55:41;;;;;;;78.53;38.25;;;;;;;;;;5015107;28;20041;-63
2023/05/17 05:58:08;;;;;;;72.75;36.50;;;;;;;;;;5013011;28;20034;-63
2023/05/17 06:00:35;;;;;;;70.43;35.55;;;;;;;;;;5015540;28;21881;-62
2023/05/17 06:03:02;;;;;;;72.80;37.92;;;;;;;;;;5022297;28;20033;-64
2023/05/17 06:05:29;;;;;;;76.68;37.92;;;;;;;;;;5014013;28;20100;-61
2023/05/17 06:07:56;;;;;;;68.07;36.83;;;;;;;;;;5016462;28;20065;-61
2023/05/17 06:10:23;;;;;;;72.55;39.60;;;;;;;;;;5014054;28;20037;-61
2023/05/17 06:12:50;;;;;;;77.30;38.50;;;;;;;;;;5016258;28;20040;-61
2023/05/17 06:15:16;;;;;;;74.25;38.42;;;;;;;;;;5031464;28;20845;-62
2023/05/17 06:17:43;;;;;;;69.00;37.47;;;;;;;;;;5009513;28;20044;-62
2023/05/17 06:20:10;;;;;;;69.78;37.70;;;;;;;;;;5014864;28;20142;-62
2023/05/17 06:22:36;;;;;;;75.50;37.15;;;;;;;;;;5012286;28;20102;-61
2023/05/17 06:25:03;;;;;;;69.68;37.65;;;;;;;;;;5016299;28;20049;-64
2023/05/17 06:27:32;;;;;;;66.43;37.78;;;;;;;;;;5011813;28;20060;-63
2023/05/17 06:30:00;;;;;;;68.97;38.90;;;;;;;;;;5011921;28;20048;-62
2023/05/17 06:32:27;;;;;;;74.10;38.28;;;;;;;;;;5011495;28;20081;-62
2023/05/17 06:34:53;;;;;;;67.18;38.55;;;;;;;;;;5012583;28;20091;-61
2023/05/17 06:37:20;;;;;;;76.65;40.42;;;;;;;;;;5012025;28;20044;-63
2023/05/17 06:39:46;;;;;;;71.30;39.08;;;;;;;;;;5009507;28;20462;-64
2023/05/17 06:42:13;;;;;;;70.43;40.17;;;;;;;;;;5012379;28;20119;-62
2023/05/17 06:44:39;;;;;;;79.57;40.17;;;;;;;;;;5011277;28;20049;-64
2023/05/17 06:47:06;;;;;;;70.10;39.50;;;;;;;;;;5012797;28;20101;-62
2023/05/17 06:49:33;;;;;;;67.78;38.20;;;;;;;;;;5011041;28;20041;-64
2023/05/17 06:52:02;;;;;;;81.40;41.50;;;;;;;;;;5012536;28;20053;-62
2023/05/17 06:54:32;;;;;;;71.93;40.13;;;;;;;;;;5011284;28;20087;-63
2023/05/17 06:57:02;;;;;;;74.35;41.60;;;;;;;;;;5012434;28;20042;-62
2023/05/17 06:59:28;;;;;;;81.47;41.30;;;;;;;;;;5010640;28;20057;-59
2023/05/17 07:01:55;;;;;;;75.97;40.72;;;;;;;;;;5012872;28;20088;-61
2023/05/17 07:04:22;;;;;;;74.13;40.97;;;;;;;;;;5012580;28;20041;-62
2023/05/17 07:06:49;;;;;;;79.15;41.35;;;;;;;;;;5018416;28;20167;-62
2023/05/17 07:09:16;;;;;;;80.55;41.45;;;;;;;;;;5017747;28;20088;-63
2023/05/17 07:11:42;;;;;;;74.28;41.75;;;;;;;;;;5018483;28;20042;-63
2023/05/17 07:14:09;;;;;;;71.93;42.35;;;;;;;;;;5019285;28;20048;-62
2023/05/17 07:16:35;;;;;;;70.13;41.67;;;;;;;;;;5018704;28;20034;-61
2023/05/17 07:19:02;;;;;;;75.35;44.05;;;;;;;;;;5018272;28;20431;-64
2023/05/17 07:21:29;;;;;;;70.72;43.65;;;;;;;;;;5024492;28;20087;-62
2023/05/17 07:23:55;;;;;;;75.07;44.00;;;;;;;;;;5033838;28;20045;-60
2023/05/17 07:26:22;;;;;;;71.25;42.08;;;;;;;;;;5018887;28;20045;-61
2023/05/17 07:28:48;;;;;;;65.97;41.95;;;;;;;;;;5018325;28;20072;-63
2023/05/17 07:31:15;;;;;;;85.22;44.42;;;;;;;;;;5019438;28;20030;-60
2023/05/17 07:33:42;;;;;;;86.00;45.70;;;;;;;;;;5018166;28;20479;-59
2023/05/17 07:36:08;;;;;;;81.50;44.40;;;;;;;;;;5018996;28;20045;-62
2023/05/17 07:38:35;;;;;;;73.82;44.65;;;;;;;;;;5017262;28;20152;-60
2023/05/17 07:41:02;;;;;;;84.22;44.72;;;;;;;;;;5018116;28;20034;-60
2023/05/17 07:43:29;;;;;;;81.03;46.55;;;;;;;;;;5016634;28;20053;-62
2023/05/17 07:45:56;;;;;;;72.35;44.40;;;;;;;;;;5018362;28;20087;-59
2023/05/17 07:48:22;;;;;;;76.07;44.92;;;;;;;;;;5015230;28;20064;-67
2023/05/17 07:50:49;;;;;;;76.45;45.92;;;;;;;;;;5018602;28;20069;-63
2023/05/17 07:53:16;;;;;;;76.97;45.78;;;;;;;;;;5018921;28;21936;-60
2023/05/17 07:55:42;;;;;;;83.93;47.40;;;;;;;;;;5018086;28;20138;-64
2023/05/17 07:58:13;;;;;;;82.50;47.78;;;;;;;;;;5023294;28;20045;-63
2023/05/17 08:00:41;;;;;;;82.43;47.45;;;;;;;;;;5018704;28;20056;-61
2023/05/17 08:03:07;;;;;;;84.80;48.90;;;;;;;;;;5010303;28;20072;-61
2023/05/17 08:05:34;;;;;;;81.80;49.08;;;;;;;;;;5012959;28;20041;-60
2023/05/17 08:08:01;;;;;;;83.90;49.90;;;;;;;;;;5018742;28;20463;-61
2023/05/17 08:10:27;;;;;;;85.68;49.63;;;;;;;;;;5017410;28;20107;-61
2023/05/17 08:12:54;;;;;;;88.78;50.53;;;;;;;;;;5018625;28;20115;-64
2023/05/17 08:15:23;;;;;;;90.97;51.97;;;;;;;;;;5018551;28;20090;-63
2023/05/17 08:17:49;;;;;;;92.78;53.08;;;;;;;;;;5016005;28;20061;-63
2023/05/17 08:20:16;;;;;;;95.68;51.83;;;;;;;;;;5017277;28;20073;-63
2023/05/17 08:22:42;;;;;;;91.88;51.75;;;;;;;;;;5017918;28;20052;-63
2023/05/17 08:25:29;;;;;;;88.28;53.35;;;;;;;;;;5001399;28;20934;-61
2023/05/17 08:27:56;;;;;;;85.40;53.00;;;;;;;;;;4984847;28;20040;-60
2023/05/17 08:30:22;;;;;;;93.55;51.47;;;;;;;;;;5009271;28;20064;-68
2023/05/17 08:32:52;;;;;;;93.50;52.58;;;;;;;;;;5014890;28;20139;-63
2023/05/17 08:35:18;;;;;;;98.50;55.20;;;;;;;;;;5015050;28;20129;-64
2023/05/17 08:37:45;;;;;;;102.78;52.92;;;;;;;;;;5014081;28;20101;-64
2023/05/17 08:40:13;;;;;;;93.40;55.35;;;;;;;;;;5002584;28;20038;-62
2023/05/17 08:42:41;;;;;;;95.65;56.63;;;;;;;;;;5010846;28;20137;-62
2023/05/17 08:45:09;;;;;;;93.63;54.13;;;;;;;;;;5014401;28;21943;-63
2023/05/17 08:47:36;;;;;;;90.70;55.78;;;;;;;;;;5013720;28;20464;-61
2023/05/17 08:50:04;;;;;;;98.03;54.95;;;;;;;;;;4991535;28;20111;-63
2023/05/17 08:52:32;;;;;;;97.60;54.40;;;;;;;;;;4997265;28;20045;-63
2023/05/17 08:55:02;;;;;;;98.28;52.97;;;;;;;;;;5014490;28;20069;-64
2023/05/17 08:57:45;;;;;;;95.80;52.92;;;;;;;;;;4992579;28;20041;-62
2023/05/17 09:00:16;;;;;;;90.18;53.00;;;;;;;;;;4992548;28;20037;-61
2023/05/17 09:02:42;;;;;;;90.28;54.22;;;;;;;;;;4991056;28;20087;-61
2023/05/17 09:05:29;;;;;;;100.97;54.85;;;;;;;;;;4951650;28;20058;-60
2023/05/17 09:07:56;;;;;;;90.50;55.30;;;;;;;;;;4953225;28;20487;-64
2023/05/17 09:10:22;;;;;;;90.15;55.83;;;;;;;;;;4964997;28;20094;-65
2023/05/17 09:12:49;;;;;;;98.13;56.90;;;;;;;;;;4969248;28;20495;-60
2023/05/17 09:15:19;;;;;;;106.25;56.22;;;;;;;;;;4970242;28;20073;-61
2023/05/17 09:17:53;;;;;;;90.55;54.65;;;;;;;;;;4969310;28;20039;-64
2023/05/17 09:20:32;;;;;;;95.85;58.88;;;;;;;;;;4957055;28;20050;-64
2023/05/17 09:23:00;;;;;;;101.25;59.65;;;;;;;;;;4966580;28;20085;-64
2023/05/17 09:25:26;;;;;;;114.28;68.85;;;;;;;;;;4968005;28;20259;-64
2023/05/17 09:27:56;;;;;;;120.88;74.78;;;;;;;;;;4942372;28;20046;-62
2023/05/17 09:30:29;;;;;;;117.35;72.40;;;;;;;;;;4965567;28;20046;-61
2023/05/17 09:33:15;;;;;;;122.10;71.27;;;;;;;;;;4953283;28;20042;-69
2023/05/17 09:35:42;;;;;;;120.82;74.40;;;;;;;;;;4954027;28;20130;-61
2023/05/17 09:38:12;;;;;;;114.97;73.80;;;;;;;;;;4953845;28;20165;-59
2023/05/17 09:40:42;;;;;;;123.43;69.82;;;;;;;;;;4927629;28;20089;-62
2023/05/17 09:43:10;;;;;;;114.13;68.45;;;;;;;;;;4959575;28;20050;-63
2023/05/17 09:45:37;;;;;;;112.95;65.45;;;;;;;;;;4953348;28;20039;-62
2023/05/17 09:48:29;;;;;;;107.53;62.95;;;;;;;;;;4955306;28;20067;-60
2023/05/17 09:50:56;;;;;;;105.55;61.40;;;;;;;;;;4952406;28;20050;-64
2023/05/17 09:53:23;;;;;;;100.00;59.40;;;;;;;;;;4961772;28;20072;-63
2023/05/17 09:55:51;;;;;;;101.53;59.90;;;;;;;;;;4956935;28;20070;-64
2023/05/17 09:58:18;;;;;;;94.55;57.38;;;;;;;;;;4945322;28;20134;-60
2023/05/17 10:00:46;;;;;;;95.15;58.97;;;;;;;;;;4961095;28;20162;-63
2023/05/17 10:03:34;;;;;;;95.03;56.45;;;;;;;;;;4913884;28;20529;-60
2023/05/17 10:06:06;;;;;;;94.15;57.78;;;;;;;;;;4963603;28;20089;-59
2023/05/17 10:08:33;;;;;;;98.28;58.08;;;;;;;;;;4961670;28;20043;-62
2023/05/17 10:11:09;;;;;;;97.57;57.47;;;;;;;;;;4945315;28;20037;-65
2023/05/17 10:13:49;;;;;;;94.95;59.22;;;;;;;;;;4963359;28;20042;-61
2023/05/17 10:16:16;;;;;;;94.30;57.60;;;;;;;;;;4962343;28;20597;-60
2023/05/17 10:18:43;;;;;;;96.57;59.15;;;;;;;;;;4952602;28;20034;-63
2023/05/17 10:21:10;;;;;;;101.78;60.55;;;;;;;;;;4962607;28;20047;-61
2023/05/17 10:23:37;;;;;;;103.30;62.05;;;;;;;;;;4962441;28;20905;-60
2023/05/17 10:26:04;;;;;;;100.78;62.17;;;;;;;;;;4964371;28;20670;-63
2023/05/17 10:28:32;;;;;;;99.70;61.97;;;;;;;;;;4945310;28;20316;-60
2023/05/17 10:30:59;;;;;;;96.47;60.28;;;;;;;;;;4963020;28;20519;-63
2023/05/17 10:33:27;;;;;;;98.82;62.85;;;;;;;;;;4959422;28;20066;-64
2023/05/17 10:35:55;;;;;;;103.05;62.33;;;;;;;;;;4962656;28;20042;-61
2023/05/17 10:38:23;;;;;;;97.10;65.00;;;;;;;;;;4961804;28;20168;-62
2023/05/17 10:40:51;;;;;;;105.05;66.63;;;;;;;;;;4982943;28;20117;-63
2023/05/17 10:43:18;;;;;;;116.68;67.70;;;;;;;;;;4998421;28;20967;-63
2023/05/17 10:45:45;;;;;;;107.57;68.75;;;;;;;;;;5015501;28;20137;-62
2023/05/17 10:48:17;;;;;;;116.50;71.05;;;;;;;;;;5014575;28;20034;-61
2023/05/17 10:50:46;;;;;;;113.47;71.57;;;;;;;;;;5014836;28;20174;-61
2023/05/17 10:53:12;;;;;;;117.07;72.72;;;;;;;;;;5016170;28;20441;-63
2023/05/17 10:55:43;;;;;;;111.13;70.30;;;;;;;;;;5010722;28;20119;-63
2023/05/17 10:58:17;;;;;;;109.60;68.88;;;;;;;;;;5015688;28;20061;-62
2023/05/17 11:00:45;;;;;;;109.40;67.32;;;;;;;;;;5012947;28;20437;-63
2023/05/17 11:03:12;;;;;;;108.70;68.80;;;;;;;;;;5015384;28;20041;-60
2023/05/17 11:05:42;;;;;;;105.90;67.13;;;;;;;;;;5015521;28;20041;-66
2023/05/17 11:08:27;;;;;;;108.43;65.63;;;;;;;;;;4972991;28;20056;-61
2023/05/17 11:11:10;;;;;;;112.25;68.65;;;;;;;;;;4973701;28;20094;-62
2023/05/17 11:13:54;;;;;;;111.80;67.35;;;;;;;;;;4973195;28;20053;-61
2023/05/17 11:16:22;;;;;;;118.65;67.47;;;;;;;;;;4972827;28;20731;-64
2023/05/17 11:18:53;;;;;;;112.82;68.78;;;;;;;;;;4977363;28;20560;-62
2023/05/17 11:21:21;;;;;;;112.82;71.50;;;;;;;;;;4991315;28;20136;-65
2023/05/17 11:23:50;;;;;;;122.80;69.55;;;;;;;;;;4991608;28;20053;-61
2023/05/17 11:26:28;;;;;;;115.63;73.03;;;;;;;;;;4992900;28;20073;-63
2023/05/17 11:29:04;;;;;;;115.10;73.88;;;;;;;;;;4992582;28;20084;-60
2023/05/17 11:31:35;;;;;;;114.88;75.00;;;;;;;;;;4990841;28;20092;-62
2023/05/17 11:34:05;;;;;;;118.55;73.22;;;;;;;;;;4979222;28;20096;-60
2023/05/17 11:36:32;;;;;;;123.45;76.05;;;;;;;;;;4992332;28;20052;-58
2023/05/17 11:39:16;;;;;;;117.88;74.38;;;;;;;;;;4992535;28;20049;-62
2023/05/17 11:41:50;;;;;;;115.35;73.07;;;;;;;;;;4991401;28;20525;-60
2023/05/17 11:44:24;;;;;;;110.72;69.53;;;;;;;;;;4974998;28;20050;-62
2023/05/17 11:46:50;;;;;;;109.47;70.55;;;;;;;;;;5016820;28;20041;-62
2023/05/17 11:49:17;;;;;;;113.47;69.00;;;;;;;;;;5035190;28;20041;-64
2023/05/17 11:51:45;;;;;;;118.00;71.80;;;;;;;;;;5033067;28;20037;-62
2023/05/17 11:54:14;;;;;;;148.93;73.82;;;;;;;;;;5005925;28;20065;-61
2023/05/17 11:56:41;;;;;;;106.75;69.20;;;;;;;;;;5003703;28;20077;-64
2023/05/17 11:59:07;;;;;;;114.35;69.43;;;;;;;;;;5004945;28;20041;-64
2023/05/17 12:01:45;;;;;;;104.40;68.55;;;;;;;;;;4993972;28;20487;-61
2023/05/17 12:04:12;;;;;;;109.85;66.18;;;;;;;;;;4988116;28;20187;-60
2023/05/17 12:06:39;;;;;;;103.97;67.03;;;;;;;;;;5003379;28;20117;-62
2023/05/17 12:09:09;;;;;;;105.45;65.15;;;;;;;;;;5005225;28;20045;-63
2023/05/17 12:11:39;;;;;;;107.90;67.03;;;;;;;;;;4986399;28;20875;-64
2023/05/17 12:14:06;;;;;;;112.65;68.47;;;;;;;;;;5005506;28;20096;-64
2023/05/17 12:16:35;;;;;;;103.75;70.18;;;;;;;;;;5002782;28;20037;-61
2023/05/17 12:19:01;;;;;;;112.53;68.15;;;;;;;;;;5006322;28;20129;-61
2023/05/17 12:21:28;;;;;;;119.03;68.18;;;;;;;;;;4992576;28;20819;-63
2023/05/17 12:24:15;;;;;;;124.65;71.22;;;;;;;;;;4971218;28;20051;-62
2023/05/17 12:26:49;;;;;;;123.35;74.47;;;;;;;;;;4946161;28;20192;-65
2023/05/17 12:29:21;;;;;;;123.15;73.60;;;;;;;;;;4956616;28;21723;-62
2023/05/17 12:31:49;;;;;;;121.07;77.97;;;;;;;;;;4955270;28;20038;-64
2023/05/17 12:34:17;;;;;;;128.48;78.05;;;;;;;;;;4951858;28;20140;-64
2023/05/17 12:36:44;;;;;;;127.07;80.32;;;;;;;;;;4950174;28;20097;-63
2023/05/17 12:39:11;;;;;;;132.38;81.20;;;;;;;;;;4951508;28;20054;-62
2023/05/17 12:41:39;;;;;;;128.77;79.68;;;;;;;;;;4959301;28;20510;-62
2023/05/17 12:44:09;;;;;;;131.10;80.82;;;;;;;;;;4959528;28;20046;-63
2023/05/17 12:46:35;;;;;;;133.70;79.47;;;;;;;;;;4955720;28;20051;-64
2023/05/17 12:49:06;;;;;;;131.48;83.75;;;;;;;;;;4956110;28;20069;-64
2023/05/17 12:51:42;;;;;;;138.95;81.85;;;;;;;;;;4964564;28;20046;-64
2023/05/17 12:54:11;;;;;;;144.27;87.78;;;;;;;;;;4966748;28;20043;-63
2023/05/17 12:56:37;;;;;;;139.02;87.50;;;;;;;;;;4958968;28;20505;-61
2023/05/17 12:59:04;;;;;;;134.88;88.53;;;;;;;;;;4955888;28;20169;-63
2023/05/17 13:01:34;;;;;;;151.55;93.88;;;;;;;;;;4969563;28;20388;-64
2023/05/17 13:04:01;;;;;;;148.52;92.47;;;;;;;;;;5003358;28;20142;-61
2023/05/17 13:06:28;;;;;;;161.57;97.90;;;;;;;;;;5026357;28;20083;-59
2023/05/17 13:08:58;;;;;;;155.35;97.25;;;;;;;;;;5020424;28;20133;-62
2023/05/17 13:11:25;;;;;;;154.68;99.05;;;;;;;;;;5018381;28;20041;-57
2023/05/17 13:13:52;;;;;;;169.70;100.40;;;;;;;;;;5018684;28;20045;-62
2023/05/17 13:16:28;;;;;;;156.52;98.88;;;;;;;;;;5026444;28;20829;-64
2023/05/17 13:18:55;;;;;;;162.95;101.18;;;;;;;;;;5031826;28;20079;-62
2023/05/17 13:21:21;;;;;;;162.25;101.13;;;;;;;;;;5023245;28;20046;-64
2023/05/17 13:23:49;;;;;;;177.07;106.90;;;;;;;;;;5023998;28;20071;-65
2023/05/17 13:26:16;;;;;;;173.73;107.72;;;;;;;;;;5028311;28;20045;-63
2023/05/17 13:28:43;;;;;;;198.23;114.05;;;;;;;;;;5030166;28;20134;-60
2023/05/17 13:31:09;;;;;;;184.15;110.47;;;;;;;;;;5025649;28;20064;-66
2023/05/17 13:33:56;;;;;;;187.05;115.05;;;;;;;;;;4979965;28;20054;-63
2023/05/17 13:36:42;;;;;;;186.07;113.82;;;;;;;;;;4994120;28;20034;-64
2023/05/17 13:39:09;;;;;;;186.55;114.50;;;;;;;;;;4986731;28;20125;-63
2023/05/17 13:41:37;;;;;;;189.30;116.72;;;;;;;;;;4983718;28;20081;-64
2023/05/17 13:44:03;;;;;;;192.57;116.95;;;;;;;;;;4987077;28;20054;-66
2023/05/17 13:46:30;;;;;;;192.73;117.03;;;;;;;;;;4984785;28;20242;-62
2023/05/17 13:48:58;;;;;;;202.52;120.28;;;;;;;;;;4985127;28;20049;-63
2023/05/17 13:51:25;;;;;;;208.60;123.70;;;;;;;;;;4983447;28;20518;-64
2023/05/17 13:53:51;;;;;;;196.93;121.97;;;;;;;;;;4985330;28;20629;-63
2023/05/17 13:56:21;;;;;;;202.32;123.07;;;;;;;;;;4984874;28;20092;-63
2023/05/17 13:58:48;;;;;;;216.50;129.63;;;;;;;;;;4982459;28;20037;-63
2023/05/17 14:01:15;;;;;;;224.90;128.70;;;;;;;;;;4959426;28;21105;-64
2023/05/17 14:04:02;;;;;;;217.43;130.85;;;;;;;;;;4942630;28;20419;-64
2023/05/17 14:06:28;;;;;;;208.05;131.63;;;;;;;;;;4966965;28;20091;-63
2023/05/17 14:08:56;;;;;;;202.75;130.32;;;;;;;;;;4993487;28;20057;-60
2023/05/17 14:11:23;;;;;;;215.52;131.43;;;;;;;;;;4993296;28;20434;-63
2023/05/17 14:13:49;;;;;;;218.80;134.25;;;;;;;;;;4993549;28;20052;-59
2023/05/17 14:16:16;;;;;;;206.25;131.75;;;;;;;;;;4992640;28;20056;-64
2023/05/17 14:18:43;;;;;;;214.57;132.70;;;;;;;;;;4992846;28;20050;-64